createdAt,value
2023-05-01T00:01:21.018Z,100539.28
2023-05-01T00:04:25.725Z,100539.22
2023-05-01T00:07:31.204Z,100532.19
2023-05-01T00:10:36.364Z,100533.84
2023-05-01T00:13:38.573Z,100538.13
2023-05-01T00:16:40.806Z,100519.31
2023-05-01T00:19:43.098Z,100525.50
2023-05-01T00:22:45.229Z,100522.56
2023-05-01T00:25:47.501Z,100520.94
2023-05-01T00:28:50.661Z,100524.88
2023-05-01T00:31:53.357Z,100524.06
2023-05-01T00:34:57.710Z,100529.13
2023-05-01T00:38:00.147Z,100527.50
2023-05-01T00:41:02.349Z,100527.94
2023-05-01T00:44:04.832Z,100528.47
2023-05-01T00:47:07.072Z,100526.56
2023-05-01T00:50:09.650Z,100525.41
2023-05-01T00:53:12.470Z,100526.97
2023-05-01T00:56:15.459Z,100521.28
2023-05-01T00:59:17.959Z,100524.44
2023-05-01T01:02:20.282Z,100517.19
2023-05-01T01:05:24.895Z,100508.19
2023-05-01T01:08:32.580Z,100527.88
2023-05-01T01:11:56.460Z,100535.38
2023-05-01T01:15:08.092Z,100531.81
2023-05-01T01:18:18.165Z,100533.25
2023-05-01T01:21:27.538Z,100537.84
2023-05-01T01:24:57.526Z,100539.97
2023-05-01T01:28:17.832Z,100534.81
2023-05-01T01:31:34.091Z,100527.56
2023-05-01T01:34:52.239Z,100527.75
2023-05-01T01:38:01.777Z,100532.78
2023-05-01T01:41:13.774Z,100536.22
2023-05-01T01:44:21.284Z,100532.78
2023-05-01T01:47:28.385Z,100530.59
2023-05-01T01:50:31.939Z,100539.16
2023-05-01T01:53:35.894Z,100541.09
2023-05-01T01:56:38.361Z,100535.47
2023-05-01T01:59:41.715Z,100540.06
2023-05-01T02:02:44.485Z,100539.81
2023-05-01T02:05:47.606Z,100538.72
2023-05-01T02:08:50.127Z,100530.19
2023-05-01T02:11:54.009Z,100538.81
2023-05-01T02:14:58.771Z,100527.81
2023-05-01T02:18:05.136Z,100527.56
2023-05-01T02:21:07.776Z,100529.03
2023-05-01T02:24:12.799Z,100527.97
2023-05-01T02:27:24.019Z,100524.16
2023-05-01T02:30:26.326Z,100522.75
2023-05-01T02:33:28.499Z,100526.03
2023-05-01T02:36:32.050Z,100531.56
2023-05-01T02:39:35.157Z,100543.94
2023-05-01T02:42:37.872Z,100545.34
2023-05-01T02:45:41.589Z,100538.06
2023-05-01T02:48:44.897Z,100537.34
2023-05-01T02:51:48.493Z,100540.66
2023-05-01T02:54:50.860Z,100532.84
2023-05-01T02:57:55.528Z,100543.53
2023-05-01T03:00:57.726Z,100546.72
2023-05-01T03:04:00.654Z,100546.47
2023-05-01T03:07:04.663Z,100550.63
2023-05-01T03:10:07.861Z,100544.09
2023-05-01T03:13:11.200Z,100546.53
2023-05-01T03:16:13.457Z,100538.06
2023-05-01T03:19:15.660Z,100545.06
2023-05-01T03:22:17.986Z,100552.34
2023-05-01T03:25:20.115Z,100551.22
2023-05-01T03:28:23.699Z,100548.84
2023-05-01T03:31:28.010Z,100547.44
2023-05-01T03:34:31.472Z,100550.44
2023-05-01T03:37:34.104Z,100559.84
2023-05-01T03:40:36.353Z,100563.25
2023-05-01T03:43:57.196Z,100552.09
2023-05-01T03:47:12.792Z,100549.84
2023-05-01T03:50:16.934Z,100539.97
2023-05-01T03:53:21.262Z,100545.72
2023-05-01T03:56:25.769Z,100548.09
2023-05-01T03:59:28.198Z,100552.06
2023-05-01T04:02:31.540Z,100543.91
2023-05-01T04:05:34.267Z,100559.41
2023-05-01T04:08:38.426Z,100549.97
2023-05-01T04:11:40.795Z,100557.81
2023-05-01T04:14:44.462Z,100549.91
2023-05-01T04:17:47.980Z,100561.84
2023-05-01T04:20:51.222Z,100550.91
2023-05-01T04:23:54.066Z,100554.03
2023-05-01T04:26:56.281Z,100556.28
2023-05-01T04:29:58.771Z,100561.00
2023-05-01T04:33:01.938Z,100555.53
2023-05-01T04:36:05.145Z,100561.09
2023-05-01T04:39:07.649Z,100567.38
2023-05-01T04:42:09.828Z,100560.16
2023-05-01T04:45:12.852Z,100572.03
2023-05-01T04:48:16.015Z,100567.38
2023-05-01T04:51:18.352Z,100574.56
2023-05-01T04:54:24.101Z,100573.84
2023-05-01T04:57:26.692Z,100582.94
2023-05-01T05:00:29.318Z,100583.56
2023-05-01T05:03:33.030Z,100580.28
2023-05-01T05:06:35.575Z,100582.31
2023-05-01T05:09:38.350Z,100580.59
2023-05-01T05:12:40.797Z,100576.03
2023-05-01T05:15:43.759Z,100587.38
2023-05-01T05:18:47.312Z,100584.09
2023-05-01T05:21:49.505Z,100578.16
2023-05-01T05:24:57.569Z,100586.53
2023-05-01T05:28:00.502Z,100587.13
2023-05-01T05:31:03.183Z,100593.91
2023-05-01T05:34:05.482Z,100591.59
2023-05-01T05:37:08.396Z,100604.28
2023-05-01T05:40:17.797Z,100597.88
2023-05-01T05:43:30.971Z,100595.75
2023-05-01T05:46:33.261Z,100591.97
2023-05-01T05:49:36.064Z,100588.22
2023-05-01T05:52:38.306Z,100600.16
2023-05-01T05:55:41.136Z,100590.22
2023-05-01T05:58:43.565Z,100596.72
2023-05-01T06:01:45.785Z,100595.69
2023-05-01T06:04:48.158Z,100598.38
2023-05-01T06:07:51.978Z,100592.72
2023-05-01T06:10:54.347Z,100609.75
2023-05-01T06:13:58.143Z,100608.72
2023-05-01T06:17:00.412Z,100604.22
2023-05-01T06:20:05.837Z,100604.25
2023-05-01T06:23:09.708Z,100606.75
2023-05-01T06:26:38.035Z,100601.91
2023-05-01T06:29:40.431Z,100603.81
2023-05-01T06:32:43.838Z,100601.91
2023-05-01T06:35:46.914Z,100614.38
2023-05-01T06:38:49.336Z,100605.47
2023-05-01T06:41:51.576Z,100603.84
2023-05-01T06:45:06.450Z,100607.41
2023-05-01T06:48:08.684Z,100603.88
2023-05-01T06:51:11.270Z,100603.88
2023-05-01T06:54:13.431Z,100608.78
2023-05-01T06:57:15.646Z,100610.75
2023-05-01T07:00:18.446Z,100607.78
2023-05-01T07:03:21.203Z,100611.59
2023-05-01T07:06:23.586Z,100610.56
2023-05-01T07:09:25.795Z,100620.31
2023-05-01T07:12:29.656Z,100623.59
2023-05-01T07:15:31.847Z,100624.69
2023-05-01T07:18:34.775Z,100625.50
2023-05-01T07:21:36.950Z,100614.41
2023-05-01T07:24:39.117Z,100626.31
2023-05-01T07:27:41.621Z,100620.94
2023-05-01T07:30:43.874Z,100616.13
2023-05-01T07:33:46.061Z,100607.72
2023-05-01T07:36:48.222Z,100610.16
2023-05-01T07:39:50.561Z,100612.09
2023-05-01T07:42:55.614Z,100616.44
2023-05-01T07:46:00.231Z,100616.16
2023-05-01T07:49:02.636Z,100610.78
2023-05-01T07:52:07.649Z,100614.81
2023-05-01T07:55:10.127Z,100621.88
2023-05-01T07:58:12.282Z,100613.50
2023-05-01T08:01:14.512Z,100618.91
2023-05-01T08:04:17.743Z,100615.13
2023-05-01T08:07:19.960Z,100618.66
2023-05-01T08:10:22.097Z,100619.22
2023-05-01T08:13:24.330Z,100615.44
2023-05-01T08:16:26.776Z,100622.75
2023-05-01T08:19:29.012Z,100624.66
2023-05-01T08:22:31.944Z,100626.53
2023-05-01T08:25:34.174Z,100614.38
2023-05-01T08:28:36.430Z,100621.16
2023-05-01T08:31:39.420Z,100619.25
2023-05-01T08:34:41.624Z,100614.13
2023-05-01T08:37:43.746Z,100603.56
2023-05-01T08:40:56.994Z,100612.22
2023-05-01T08:44:01.625Z,100608.16
2023-05-01T08:47:16.749Z,100608.97
2023-05-01T08:50:19.394Z,100613.31
2023-05-01T08:53:22.777Z,100612.75
2023-05-01T08:56:25.743Z,100597.88
2023-05-01T08:59:28.706Z,100605.97
2023-05-01T09:02:31.356Z,100604.34
2023-05-01T09:05:33.712Z,100598.94
2023-05-01T09:08:36.024Z,100602.75
2023-05-01T09:11:39.667Z,100600.28
2023-05-01T09:14:41.852Z,100591.34
2023-05-01T09:17:44.931Z,100589.19
2023-05-01T09:20:47.600Z,100583.25
2023-05-01T09:23:53.849Z,100604.91
2023-05-01T09:26:58.144Z,100594.06
2023-05-01T09:30:00.437Z,100587.25
2023-05-01T09:33:12.610Z,100586.44
2023-05-01T09:36:17.424Z,100587.81
2023-05-01T09:39:23.059Z,100588.31
2023-05-01T09:42:25.174Z,100594.56
2023-05-01T09:45:27.945Z,100591.00
2023-05-01T09:48:33.253Z,100577.19
2023-05-01T09:51:37.093Z,100573.38
2023-05-01T09:54:39.300Z,100576.63
2023-05-01T09:57:43.004Z,100573.88
2023-05-01T10:00:51.753Z,100583.91
2023-05-01T10:03:55.200Z,100571.13
2023-05-01T10:06:57.907Z,100561.66
2023-05-01T10:10:24.253Z,100564.31
2023-05-01T10:13:26.801Z,100564.84
2023-05-01T10:16:30.547Z,100559.13
2023-05-01T10:19:32.911Z,100553.44
2023-05-01T10:22:35.223Z,100549.88
2023-05-01T10:25:38.084Z,100551.75
2023-05-01T10:28:40.871Z,100537.13
2023-05-01T10:31:43.078Z,100541.72
2023-05-01T10:35:02.251Z,100539.25
2023-05-01T10:38:18.451Z,100533.25
2023-05-01T10:41:57.740Z,100535.66
2023-05-01T10:45:29.964Z,100519.63
2023-05-01T10:48:38.374Z,100525.81
2023-05-01T10:51:58.898Z,100528.50
2023-05-01T10:55:36.138Z,100523.06
2023-05-01T10:58:40.957Z,100515.97
2023-05-01T11:01:48.506Z,100509.75
2023-05-01T11:04:51.721Z,100513.53
2023-05-01T11:08:31.748Z,100502.91
2023-05-01T11:11:33.944Z,100517.00
2023-05-01T11:14:56.666Z,100509.91
2023-05-01T11:18:03.917Z,100499.59
2023-05-01T11:21:06.385Z,100499.25
2023-05-01T11:24:09.211Z,100498.41
2023-05-01T11:27:13.683Z,100495.84
2023-05-01T11:30:16.328Z,100495.00
2023-05-01T11:33:23.233Z,100483.03
2023-05-01T11:36:27.269Z,100486.25
2023-05-01T11:39:29.428Z,100472.09
2023-05-01T11:42:31.617Z,100478.56
2023-05-01T11:45:35.822Z,100465.22
2023-05-01T11:48:38.021Z,100471.19
2023-05-01T11:51:40.232Z,100473.09
2023-05-01T11:54:48.631Z,100470.31
2023-05-01T11:57:52.473Z,100470.50
2023-05-01T12:00:54.704Z,100457.41
2023-05-01T12:03:57.382Z,100464.16
2023-05-01T12:06:59.736Z,100473.47
2023-05-01T12:10:02.109Z,100463.13
2023-05-01T12:13:06.123Z,100462.47
2023-05-01T12:16:08.693Z,100456.66
2023-05-01T12:19:13.761Z,100450.16
2023-05-01T12:22:16.066Z,100446.56
2023-05-01T12:25:19.461Z,100451.88
2023-05-01T12:28:21.707Z,100444.75
2023-05-01T12:31:25.034Z,100443.25
2023-05-01T12:34:32.750Z,100428.50
2023-05-01T12:37:35.244Z,100428.13
2023-05-01T12:40:40.218Z,100425.00
2023-05-01T12:43:44.259Z,100430.69
2023-05-01T12:46:54.057Z,100420.84
2023-05-01T12:50:03.182Z,100427.28
2023-05-01T12:53:07.153Z,100412.28
2023-05-01T12:56:09.472Z,100420.28
2023-05-01T12:59:23.948Z,100409.09
2023-05-01T13:02:30.514Z,100400.34
2023-05-01T13:05:32.736Z,100403.84
2023-05-01T13:08:38.440Z,100407.06
2023-05-01T13:11:40.700Z,100406.44
2023-05-01T13:14:43.066Z,100391.13
2023-05-01T13:17:45.292Z,100389.09
2023-05-01T13:20:47.466Z,100388.00
2023-05-01T13:24:01.656Z,100394.97
2023-05-01T13:27:05.365Z,100390.63
2023-05-01T13:30:08.161Z,100386.56
2023-05-01T13:33:11.030Z,100370.16
2023-05-01T13:36:25.006Z,100379.34
2023-05-01T13:39:28.309Z,100370.16
2023-05-01T13:42:30.663Z,100368.47
2023-05-01T13:45:32.788Z,100369.34
2023-05-01T13:48:34.944Z,100358.84
2023-05-01T13:51:42.712Z,100359.25
2023-05-01T13:54:45.958Z,100345.53
2023-05-01T13:57:48.187Z,100351.38
2023-05-01T14:00:50.447Z,100353.31
2023-05-01T14:03:57.092Z,100334.13
2023-05-01T14:07:01.298Z,100350.34
2023-05-01T14:10:03.827Z,100335.91
2023-05-01T14:13:06.727Z,100340.59
2023-05-01T14:16:11.086Z,100342.00
2023-05-01T14:19:16.308Z,100329.31
2023-05-01T14:22:18.478Z,100320.44
2023-05-01T14:25:25.220Z,100318.47
2023-05-01T14:28:27.568Z,100324.19
2023-05-01T14:31:30.378Z,100325.38
2023-05-01T14:34:33.388Z,100316.38
2023-05-01T14:37:35.691Z,100313.66
2023-05-01T14:40:40.219Z,100302.56
2023-05-01T14:43:43.891Z,100309.44
2023-05-01T14:46:51.437Z,100306.66
2023-05-01T14:49:57.047Z,100298.59
2023-05-01T14:53:00.881Z,100303.38
2023-05-01T14:56:03.072Z,100301.53
2023-05-01T14:59:05.407Z,100285.19
2023-05-01T15:02:07.858Z,100286.84
2023-05-01T15:05:10.236Z,100295.31
2023-05-01T15:08:12.464Z,100282.63
2023-05-01T15:11:14.661Z,100294.63
2023-05-01T15:14:16.864Z,100297.66
2023-05-01T15:17:19.001Z,100290.41
2023-05-01T15:20:21.124Z,100290.13
2023-05-01T15:23:25.066Z,100289.94
2023-05-01T15:26:27.287Z,100290.69
2023-05-01T15:29:29.418Z,100288.69
2023-05-01T15:32:32.078Z,100294.75
2023-05-01T15:35:34.529Z,100292.66
2023-05-01T15:38:36.684Z,100277.22
2023-05-01T15:41:38.991Z,100281.25
2023-05-01T15:44:42.038Z,100280.63
2023-05-01T15:47:44.776Z,100275.97
2023-05-01T15:50:48.947Z,100281.25
2023-05-01T15:53:51.691Z,100284.47
2023-05-01T15:56:54.014Z,100277.22
2023-05-01T15:59:56.680Z,100284.22
2023-05-01T16:03:01.124Z,100273.53
2023-05-01T16:06:03.730Z,100280.94
2023-05-01T16:09:05.882Z,100283.47
2023-05-01T16:12:08.277Z,100285.56
2023-05-01T16:15:12.006Z,100281.66
2023-05-01T16:18:20.839Z,100281.56
2023-05-01T16:21:24.333Z,100280.88
2023-05-01T16:24:26.722Z,100282.41
2023-05-01T16:27:29.064Z,100284.13
2023-05-01T16:30:31.201Z,100275.88
2023-05-01T16:33:33.769Z,100274.16
2023-05-01T16:36:37.120Z,100279.50
2023-05-01T16:39:39.293Z,100269.00
2023-05-01T16:42:42.437Z,100278.38
2023-05-01T16:45:46.690Z,100274.41
2023-05-01T16:48:48.831Z,100283.19
2023-05-01T16:51:51.004Z,100277.94
2023-05-01T16:54:54.401Z,100279.13
2023-05-01T16:57:56.652Z,100280.34
2023-05-01T17:00:59.643Z,100284.53
2023-05-01T17:04:02.205Z,100274.69
2023-05-01T17:07:04.448Z,100281.53
2023-05-01T17:10:07.730Z,100267.50
2023-05-01T17:13:09.894Z,100273.06
2023-05-01T17:16:12.097Z,100271.41
2023-05-01T17:19:14.331Z,100269.78
2023-05-01T17:22:16.682Z,100281.00
2023-05-01T17:25:18.903Z,100273.03
2023-05-01T17:28:21.691Z,100270.47
2023-05-01T17:31:23.869Z,100279.50
2023-05-01T17:34:26.119Z,100262.84
2023-05-01T17:37:28.326Z,100268.97
2023-05-01T17:40:32.250Z,100261.75
2023-05-01T17:43:34.415Z,100265.13
2023-05-01T17:46:38.842Z,100267.38
2023-05-01T17:49:41.447Z,100266.19
2023-05-01T17:52:45.069Z,100262.44
2023-05-01T17:55:47.329Z,100260.66
2023-05-01T17:58:49.519Z,100261.09
2023-05-01T18:01:51.832Z,100251.72
2023-05-01T18:04:55.221Z,100251.78
2023-05-01T18:07:57.478Z,100255.38
2023-05-01T18:10:59.637Z,100263.56
2023-05-01T18:14:02.385Z,100252.53
2023-05-01T18:17:04.669Z,100255.91
2023-05-01T18:20:07.505Z,100259.72
2023-05-01T18:23:10.128Z,100266.81
2023-05-01T18:26:12.346Z,100266.31
2023-05-01T18:29:14.550Z,100268.56
2023-05-01T18:32:17.382Z,100275.66
2023-05-01T18:35:20.491Z,100278.41
2023-05-01T18:38:22.656Z,100275.75
2023-05-01T18:41:25.716Z,100270.66
2023-05-01T18:44:28.006Z,100282.59
2023-05-01T18:47:32.330Z,100278.28
2023-05-01T18:50:34.773Z,100278.06
2023-05-01T18:53:36.940Z,100292.19
2023-05-01T18:56:39.062Z,100287.38
2023-05-01T18:59:43.029Z,100288.78
2023-05-01T19:02:51.295Z,100289.91
2023-05-01T19:05:53.591Z,100292.88
2023-05-01T19:08:55.815Z,100290.22
2023-05-01T19:11:57.967Z,100298.09
2023-05-01T19:15:00.278Z,100299.16
2023-05-01T19:18:02.698Z,100291.13
2023-05-01T19:21:05.465Z,100301.66
2023-05-01T19:24:08.160Z,100300.31
2023-05-01T19:27:11.617Z,100300.91
2023-05-01T19:30:15.129Z,100295.72
2023-05-01T19:33:17.390Z,100300.13
2023-05-01T19:36:20.749Z,100288.75
2023-05-01T19:39:23.475Z,100292.53
2023-05-01T19:42:25.691Z,100289.59
2023-05-01T19:45:27.940Z,100290.69
2023-05-01T19:48:30.149Z,100281.00
2023-05-01T19:51:32.299Z,100284.00
2023-05-01T19:54:34.516Z,100294.00
2023-05-01T19:57:36.737Z,100287.81
2023-05-01T20:00:38.905Z,100289.47
2023-05-01T20:03:41.219Z,100293.53
2023-05-01T20:06:43.563Z,100300.88
2023-05-01T20:09:45.934Z,100297.09
2023-05-01T20:12:48.066Z,100290.03
2023-05-01T20:15:51.373Z,100290.84
2023-05-01T20:18:53.654Z,100300.06
2023-05-01T20:21:56.066Z,100294.91
2023-05-01T20:24:58.220Z,100290.09
2023-05-01T20:28:03.091Z,100290.34
2023-05-01T20:31:05.654Z,100287.38
2023-05-01T20:34:07.900Z,100289.00
2023-05-01T20:37:10.066Z,100278.75
2023-05-01T20:40:12.798Z,100292.78
2023-05-01T20:43:15.085Z,100295.50
2023-05-01T20:46:18.078Z,100300.41
2023-05-01T20:49:20.772Z,100300.38
2023-05-01T20:52:23.298Z,100298.22
2023-05-01T20:55:26.220Z,100312.53
2023-05-01T20:58:28.453Z,100313.38
2023-05-01T21:01:33.906Z,100316.06
2023-05-01T21:04:37.989Z,100312.00
2023-05-01T21:07:43.162Z,100324.72
2023-05-01T21:10:45.404Z,100311.50
2023-05-01T21:13:47.581Z,100326.09
2023-05-01T21:16:49.864Z,100323.63
2023-05-01T21:19:55.104Z,100328.25
2023-05-01T21:22:57.340Z,100316.09
2023-05-01T21:25:59.503Z,100319.59
2023-05-01T21:29:01.719Z,100321.47
2023-05-01T21:32:04.497Z,100319.88
2023-05-01T21:35:07.928Z,100324.44
2023-05-01T21:38:10.594Z,100329.84
2023-05-01T21:41:15.089Z,100341.72
2023-05-01T21:44:17.880Z,100334.44
2023-05-01T21:47:20.328Z,100345.25
2023-05-01T21:50:22.737Z,100340.91
2023-05-01T21:53:26.284Z,100339.59
2023-05-01T21:56:28.721Z,100330.66
2023-05-01T21:59:37.752Z,100342.53
2023-05-01T22:02:41.990Z,100339.56
2023-05-01T22:05:44.476Z,100337.69
2023-05-01T22:08:46.693Z,100330.66
2023-05-01T22:11:49.022Z,100335.78
2023-05-01T22:14:51.220Z,100327.97
2023-05-01T22:17:53.535Z,100323.09
2023-05-01T22:20:55.801Z,100329.56
2023-05-01T22:23:57.984Z,100326.31
2023-05-01T22:27:00.429Z,100326.88
2023-05-01T22:30:03.902Z,100327.66
2023-05-01T22:33:06.634Z,100333.06
2023-05-01T22:36:08.893Z,100329.78
2023-05-01T22:39:11.475Z,100324.94
2023-05-01T22:42:13.794Z,100329.00
2023-05-01T22:45:16.098Z,100329.53
2023-05-01T22:48:18.364Z,100323.84
2023-05-01T22:51:20.677Z,100328.16
2023-05-01T22:54:23.224Z,100332.22
2023-05-01T22:57:25.446Z,100327.91
2023-05-01T23:00:27.710Z,100321.97
2023-05-01T23:03:30.064Z,100328.69
2023-05-01T23:06:32.823Z,100330.84
2023-05-01T23:09:35.047Z,100322.47
2023-05-01T23:12:42.403Z,100316.53
2023-05-01T23:15:47.646Z,100323.28
2023-05-01T23:18:49.915Z,100318.13
2023-05-01T23:22:07.137Z,100324.59
2023-05-01T23:25:13.610Z,100325.91
2023-05-01T23:28:23.749Z,100332.38
2023-05-01T23:31:27.273Z,100326.72
2023-05-01T23:34:29.755Z,100322.38
2023-05-01T23:37:32.013Z,100324.56
2023-05-01T23:40:35.097Z,100330.19
2023-05-01T23:43:38.654Z,100329.41
2023-05-01T23:46:41.161Z,100329.34
2023-05-01T23:49:43.479Z,100325.34
2023-05-01T23:52:46.013Z,100317.19
2023-05-01T23:55:48.195Z,100318.03
2023-05-01T23:58:50.315Z,100328.81
